Terminal Aerodrome Forecast
Issued by NWS

Home | Current Version | Previous Version | Text Only | Print | Product List | Glossary Off
Versions: 1 2 3 4 5 6 7 8 9 10 11 12 13 14 15 16 17 18

000
FTUS42 KMHX 171759
TAFOAJ
TAF
KOAJ 171759Z 1718/1818 01007KT P6SM VCSH FEW024 OVC070
     FM171900 03008KT P6SM VCSH OVC040
     FM172100 03007KT P6SM BKN060
     FM180700 02005KT P6SM OVC004
     FM181500 36010KT P6SM BKN015
      AMD LTD TO CLD VIS AND WIND=

USA.gov is the U.S. government's official web portal to all federal, state and local government web resources and services.